sensor_id;sensor_type;location;lat;lon;timestamp;P1;durP1;ratioP1;P2;durP2;ratioP2
13425;SDS011;6785;57.918;12.530;2022-09-09T00:04:58;2.03;;;1.50;;
13425;SDS011;6785;57.918;12.530;2022-09-09T00:10:23;1.80;;;1.70;;
13425;SDS011;6785;57.918;12.530;2022-09-09T00:12:59;2.50;;;1.77;;
13425;SDS011;6785;57.918;12.530;2022-09-09T00:15:51;1.53;;;1.43;;
13425;SDS011;6785;57.918;12.530;2022-09-09T00:18:24;1.60;;;1.50;;
13425;SDS011;6785;57.918;12.530;2022-09-09T00:20:56;2.33;;;1.50;;
13425;SDS011;6785;57.918;12.530;2022-09-09T00:23:28;2.03;;;1.60;;
13425;SDS011;6785;57.918;12.530;2022-09-09T00:26:00;2.17;;;1.67;;
13425;SDS011;6785;57.918;12.530;2022-09-09T00:28:33;2.17;;;1.50;;
13425;SDS011;6785;57.918;12.530;2022-09-09T00:31:11;3.00;;;1.77;;
13425;SDS011;6785;57.918;12.530;2022-09-09T00:33:39;3.17;;;1.60;;
13425;SDS011;6785;57.918;12.530;2022-09-09T00:36:09;1.97;;;1.60;;
13425;SDS011;6785;57.918;12.530;2022-09-09T00:38:41;1.87;;;1.47;;
13425;SDS011;6785;57.918;12.530;2022-09-09T00:41:11;1.80;;;1.50;;
13425;SDS011;6785;57.918;12.530;2022-09-09T00:43:43;3.87;;;1.77;;
13425;SDS011;6785;57.918;12.530;2022-09-09T00:49:24;2.40;;;1.70;;
13425;SDS011;6785;57.918;12.530;2022-09-09T00:52:04;2.23;;;1.63;;
13425;SDS011;6785;57.918;12.530;2022-09-09T00:54:44;2.53;;;1.70;;
13425;SDS011;6785;57.918;12.530;2022-09-09T00:57:23;3.30;;;1.90;;
13425;SDS011;6785;57.918;12.530;2022-09-09T00:59:58;2.03;;;1.70;;
13425;SDS011;6785;57.918;12.530;2022-09-09T01:02:44;3.47;;;1.63;;
13425;SDS011;6785;57.918;12.530;2022-09-09T01:05:19;1.97;;;1.87;;
13425;SDS011;6785;57.918;12.530;2022-09-09T01:07:53;1.57;;;1.47;;
13425;SDS011;6785;57.918;12.530;2022-09-09T01:10:22;2.03;;;1.70;;
13425;SDS011;6785;57.918;12.530;2022-09-09T01:12:56;2.03;;;1.80;;
13425;SDS011;6785;57.918;12.530;2022-09-09T01:15:30;2.03;;;1.67;;
13425;SDS011;6785;57.918;12.530;2022-09-09T01:17:59;3.60;;;1.90;;
13425;SDS011;6785;57.918;12.530;2022-09-09T01:20:31;2.20;;;1.90;;
13425;SDS011;6785;57.918;12.530;2022-09-09T01:23:16;2.40;;;1.77;;
13425;SDS011;6785;57.918;12.530;2022-09-09T01:26:07;5.03;;;1.73;;
13425;SDS011;6785;57.918;12.530;2022-09-09T01:28:43;3.87;;;1.77;;
13425;SDS011;6785;57.918;12.530;2022-09-09T01:31:11;2.20;;;2.00;;
13425;SDS011;6785;57.918;12.530;2022-09-09T01:33:43;2.03;;;1.83;;
13425;SDS011;6785;57.918;12.530;2022-09-09T01:36:11;2.93;;;2.00;;
13425;SDS011;6785;57.918;12.530;2022-09-09T01:38:41;4.73;;;1.83;;
13425;SDS011;6785;57.918;12.530;2022-09-09T01:41:09;2.00;;;1.80;;
13425;SDS011;6785;57.918;12.530;2022-09-09T01:43:36;2.10;;;1.90;;
13425;SDS011;6785;57.918;12.530;2022-09-09T01:46:03;1.90;;;1.80;;
13425;SDS011;6785;57.918;12.530;2022-09-09T01:48:31;1.77;;;1.67;;
13425;SDS011;6785;57.918;12.530;2022-09-09T01:50:58;2.23;;;1.80;;
13425;SDS011;6785;57.918;12.530;2022-09-09T01:53:25;2.30;;;1.63;;
13425;SDS011;6785;57.918;12.530;2022-09-09T01:55:55;2.10;;;1.80;;
13425;SDS011;6785;57.918;12.530;2022-09-09T01:58:34;2.07;;;1.87;;
13425;SDS011;6785;57.918;12.530;2022-09-09T02:01:12;2.03;;;1.90;;
13425;SDS011;6785;57.918;12.530;2022-09-09T02:03:44;2.27;;;2.07;;
13425;SDS011;6785;57.918;12.530;2022-09-09T02:06:18;2.23;;;2.03;;
13425;SDS011;6785;57.918;12.530;2022-09-09T02:08:52;1.93;;;1.80;;
13425;SDS011;6785;57.918;12.530;2022-09-09T02:11:22;2.13;;;1.93;;
13425;SDS011;6785;57.918;12.530;2022-09-09T02:13:53;3.30;;;2.10;;
13425;SDS011;6785;57.918;12.530;2022-09-09T02:16:23;2.00;;;1.90;;
13425;SDS011;6785;57.918;12.530;2022-09-09T02:18:54;2.30;;;1.90;;
13425;SDS011;6785;57.918;12.530;2022-09-09T02:21:27;1.90;;;1.80;;
13425;SDS011;6785;57.918;12.530;2022-09-09T02:23:56;2.20;;;1.93;;
13425;SDS011;6785;57.918;12.530;2022-09-09T02:26:29;2.50;;;2.30;;
13425;SDS011;6785;57.918;12.530;2022-09-09T02:28:59;2.30;;;2.10;;
13425;SDS011;6785;57.918;12.530;2022-09-09T02:31:29;3.13;;;2.10;;
13425;SDS011;6785;57.918;12.530;2022-09-09T02:34:00;2.33;;;2.13;;
13425;SDS011;6785;57.918;12.530;2022-09-09T02:36:31;2.70;;;2.30;;
13425;SDS011;6785;57.918;12.530;2022-09-09T02:39:00;2.33;;;2.10;;
13425;SDS011;6785;57.918;12.530;2022-09-09T02:41:30;2.47;;;2.10;;
13425;SDS011;6785;57.918;12.530;2022-09-09T02:44:01;3.33;;;2.50;;
13425;SDS011;6785;57.918;12.530;2022-09-09T02:46:36;2.70;;;2.13;;
13425;SDS011;6785;57.918;12.530;2022-09-09T02:49:25;5.03;;;2.00;;
13425;SDS011;6785;57.918;12.530;2022-09-09T02:52:00;2.10;;;1.93;;
13425;SDS011;6785;57.918;12.530;2022-09-09T02:54:31;3.77;;;2.20;;
13425;SDS011;6785;57.918;12.530;2022-09-09T02:57:01;3.30;;;2.30;;
13425;SDS011;6785;57.918;12.530;2022-09-09T02:59:33;6.37;;;2.33;;
13425;SDS011;6785;57.918;12.530;2022-09-09T03:02:00;2.13;;;1.93;;
13425;SDS011;6785;57.918;12.530;2022-09-09T03:04:27;2.43;;;2.23;;
13425;SDS011;6785;57.918;12.530;2022-09-09T03:06:55;2.30;;;2.10;;
13425;SDS011;6785;57.918;12.530;2022-09-09T03:09:22;3.27;;;2.27;;
13425;SDS011;6785;57.918;12.530;2022-09-09T03:11:49;2.43;;;2.20;;
13425;SDS011;6785;57.918;12.530;2022-09-09T03:14:15;2.60;;;2.40;;
13425;SDS011;6785;57.918;12.530;2022-09-09T03:16:47;6.10;;;2.60;;
13425;SDS011;6785;57.918;12.530;2022-09-09T03:19:14;3.67;;;2.30;;
13425;SDS011;6785;57.918;12.530;2022-09-09T03:21:41;5.00;;;2.17;;
13425;SDS011;6785;57.918;12.530;2022-09-09T03:24:07;2.27;;;2.07;;
13425;SDS011;6785;57.918;12.530;2022-09-09T03:26:34;3.63;;;2.30;;
13425;SDS011;6785;57.918;12.530;2022-09-09T03:29:02;4.80;;;2.00;;
13425;SDS011;6785;57.918;12.530;2022-09-09T03:31:31;2.63;;;2.30;;
13425;SDS011;6785;57.918;12.530;2022-09-09T03:33:59;4.50;;;2.03;;
13425;SDS011;6785;57.918;12.530;2022-09-09T03:36:27;5.40;;;2.43;;
13425;SDS011;6785;57.918;12.530;2022-09-09T03:38:54;3.57;;;2.27;;
13425;SDS011;6785;57.918;12.530;2022-09-09T03:41:21;4.40;;;2.30;;
13425;SDS011;6785;57.918;12.530;2022-09-09T03:43:49;2.43;;;2.23;;
13425;SDS011;6785;57.918;12.530;2022-09-09T03:46:15;2.87;;;2.20;;
13425;SDS011;6785;57.918;12.530;2022-09-09T03:48:42;5.13;;;2.07;;
13425;SDS011;6785;57.918;12.530;2022-09-09T03:51:11;6.37;;;2.40;;
13425;SDS011;6785;57.918;12.530;2022-09-09T03:53:38;3.57;;;2.30;;
13425;SDS011;6785;57.918;12.530;2022-09-09T03:56:06;2.13;;;1.97;;
13425;SDS011;6785;57.918;12.530;2022-09-09T03:58:33;2.57;;;2.33;;
13425;SDS011;6785;57.918;12.530;2022-09-09T04:01:01;2.50;;;2.30;;
13425;SDS011;6785;57.918;12.530;2022-09-09T04:03:29;5.40;;;2.40;;
13425;SDS011;6785;57.918;12.530;2022-09-09T04:05:58;2.70;;;2.50;;
13425;SDS011;6785;57.918;12.530;2022-09-09T04:08:28;2.60;;;2.40;;
13425;SDS011;6785;57.918;12.530;2022-09-09T04:10:56;4.70;;;2.40;;
13425;SDS011;6785;57.918;12.530;2022-09-09T04:13:24;2.67;;;2.13;;
13425;SDS011;6785;57.918;12.530;2022-09-09T04:15:51;3.37;;;2.37;;
13425;SDS011;6785;57.918;12.530;2022-09-09T04:18:19;3.23;;;2.27;;
13425;SDS011;6785;57.918;12.530;2022-09-09T04:20:46;3.17;;;2.40;;
13425;SDS011;6785;57.918;12.530;2022-09-09T04:23:14;2.50;;;2.27;;
13425;SDS011;6785;57.918;12.530;2022-09-09T04:25:44;6.20;;;2.83;;
13425;SDS011;6785;57.918;12.530;2022-09-09T04:28:12;3.37;;;2.70;;
13425;SDS011;6785;57.918;12.530;2022-09-09T04:30:38;2.87;;;2.53;;
13425;SDS011;6785;57.918;12.530;2022-09-09T04:33:05;2.40;;;2.20;;
13425;SDS011;6785;57.918;12.530;2022-09-09T04:35:32;2.57;;;2.27;;
13425;SDS011;6785;57.918;12.530;2022-09-09T04:38:00;3.93;;;2.47;;
13425;SDS011;6785;57.918;12.530;2022-09-09T04:40:28;3.80;;;2.53;;
13425;SDS011;6785;57.918;12.530;2022-09-09T04:42:58;3.03;;;2.20;;
13425;SDS011;6785;57.918;12.530;2022-09-09T04:45:25;6.50;;;2.40;;
13425;SDS011;6785;57.918;12.530;2022-09-09T04:47:52;3.33;;;2.10;;
13425;SDS011;6785;57.918;12.530;2022-09-09T04:50:19;2.30;;;2.10;;
13425;SDS011;6785;57.918;12.530;2022-09-09T04:52:46;3.07;;;1.97;;
13425;SDS011;6785;57.918;12.530;2022-09-09T04:55:13;2.33;;;2.13;;
13425;SDS011;6785;57.918;12.530;2022-09-09T04:57:40;2.90;;;2.20;;
13425;SDS011;6785;57.918;12.530;2022-09-09T05:00:09;2.77;;;2.13;;
13425;SDS011;6785;57.918;12.530;2022-09-09T05:02:38;2.97;;;1.90;;
13425;SDS011;6785;57.918;12.530;2022-09-09T05:05:07;4.10;;;2.30;;
13425;SDS011;6785;57.918;12.530;2022-09-09T05:07:36;2.43;;;2.20;;
13425;SDS011;6785;57.918;12.530;2022-09-09T05:10:03;3.40;;;2.20;;
13425;SDS011;6785;57.918;12.530;2022-09-09T05:12:30;2.50;;;2.27;;
13425;SDS011;6785;57.918;12.530;2022-09-09T05:14:57;3.77;;;2.23;;
13425;SDS011;6785;57.918;12.530;2022-09-09T05:17:25;4.10;;;2.20;;
13425;SDS011;6785;57.918;12.530;2022-09-09T05:19:52;2.17;;;2.00;;
13425;SDS011;6785;57.918;12.530;2022-09-09T05:22:19;2.40;;;2.20;;
13425;SDS011;6785;57.918;12.530;2022-09-09T05:24:48;2.73;;;1.90;;
13425;SDS011;6785;57.918;12.530;2022-09-09T05:27:15;2.73;;;2.30;;
13425;SDS011;6785;57.918;12.530;2022-09-09T05:29:43;3.67;;;2.23;;
13425;SDS011;6785;57.918;12.530;2022-09-09T05:32:09;5.23;;;1.90;;
13425;SDS011;6785;57.918;12.530;2022-09-09T05:34:38;5.97;;;2.00;;
13425;SDS011;6785;57.918;12.530;2022-09-09T05:37:04;2.00;;;1.80;;
13425;SDS011;6785;57.918;12.530;2022-09-09T05:39:32;3.30;;;2.20;;
13425;SDS011;6785;57.918;12.530;2022-09-09T05:42:01;6.13;;;2.43;;
13425;SDS011;6785;57.918;12.530;2022-09-09T05:44:30;3.20;;;1.80;;
13425;SDS011;6785;57.918;12.530;2022-09-09T05:46:57;6.50;;;2.60;;
13425;SDS011;6785;57.918;12.530;2022-09-09T05:49:24;2.13;;;1.90;;
13425;SDS011;6785;57.918;12.530;2022-09-09T05:51:52;4.10;;;2.20;;
13425;SDS011;6785;57.918;12.530;2022-09-09T05:54:19;3.03;;;1.97;;
13425;SDS011;6785;57.918;12.530;2022-09-09T05:56:46;7.27;;;2.20;;
13425;SDS011;6785;57.918;12.530;2022-09-09T05:59:14;3.30;;;2.07;;
13425;SDS011;6785;57.918;12.530;2022-09-09T06:01:41;4.87;;;1.80;;
13425;SDS011;6785;57.918;12.530;2022-09-09T06:04:10;6.13;;;1.93;;
13425;SDS011;6785;57.918;12.530;2022-09-09T06:06:37;3.63;;;1.70;;
13425;SDS011;6785;57.918;12.530;2022-09-09T06:09:07;4.23;;;1.90;;
13425;SDS011;6785;57.918;12.530;2022-09-09T06:11:36;2.40;;;1.90;;
13425;SDS011;6785;57.918;12.530;2022-09-09T06:14:04;6.47;;;1.63;;
13425;SDS011;6785;57.918;12.530;2022-09-09T06:16:32;4.40;;;1.93;;
13425;SDS011;6785;57.918;12.530;2022-09-09T06:18:59;3.93;;;1.90;;
13425;SDS011;6785;57.918;12.530;2022-09-09T06:21:28;5.83;;;2.30;;
13425;SDS011;6785;57.918;12.530;2022-09-09T06:23:58;5.43;;;1.90;;
13425;SDS011;6785;57.918;12.530;2022-09-09T06:26:27;2.20;;;1.97;;
13425;SDS011;6785;57.918;12.530;2022-09-09T06:28:56;3.03;;;1.73;;
13425;SDS011;6785;57.918;12.530;2022-09-09T06:31:24;2.70;;;1.63;;
13425;SDS011;6785;57.918;12.530;2022-09-09T06:33:55;1.70;;;1.60;;
13425;SDS011;6785;57.918;12.530;2022-09-09T06:36:24;2.47;;;2.00;;
13425;SDS011;6785;57.918;12.530;2022-09-09T06:38:52;3.90;;;2.10;;
13425;SDS011;6785;57.918;12.530;2022-09-09T06:41:20;6.13;;;2.00;;
13425;SDS011;6785;57.918;12.530;2022-09-09T06:43:51;2.27;;;1.57;;
13425;SDS011;6785;57.918;12.530;2022-09-09T06:46:20;2.40;;;1.70;;
13425;SDS011;6785;57.918;12.530;2022-09-09T06:48:49;5.53;;;1.80;;
13425;SDS011;6785;57.918;12.530;2022-09-09T06:51:16;1.93;;;1.63;;
13425;SDS011;6785;57.918;12.530;2022-09-09T06:53:46;6.00;;;1.90;;
13425;SDS011;6785;57.918;12.530;2022-09-09T06:56:19;3.67;;;1.63;;
13425;SDS011;6785;57.918;12.530;2022-09-09T06:58:48;5.03;;;1.67;;
13425;SDS011;6785;57.918;12.530;2022-09-09T07:01:18;4.07;;;1.90;;
13425;SDS011;6785;57.918;12.530;2022-09-09T07:06:53;1.77;;;1.60;;
13425;SDS011;6785;57.918;12.530;2022-09-09T07:09:20;3.47;;;1.80;;
13425;SDS011;6785;57.918;12.530;2022-09-09T07:11:48;4.03;;;2.10;;
13425;SDS011;6785;57.918;12.530;2022-09-09T07:14:17;3.13;;;2.00;;
13425;SDS011;6785;57.918;12.530;2022-09-09T07:16:46;2.00;;;1.80;;
13425;SDS011;6785;57.918;12.530;2022-09-09T07:25:24;3.40;;;2.00;;
13425;SDS011;6785;57.918;12.530;2022-09-09T07:27:53;3.37;;;1.87;;
13425;SDS011;6785;57.918;12.530;2022-09-09T07:33:21;4.67;;;2.03;;
13425;SDS011;6785;57.918;12.530;2022-09-09T07:38:47;4.73;;;1.87;;
13425;SDS011;6785;57.918;12.530;2022-09-09T07:41:17;2.40;;;1.60;;
13425;SDS011;6785;57.918;12.530;2022-09-09T07:43:51;4.53;;;1.90;;
13425;SDS011;6785;57.918;12.530;2022-09-09T07:46:20;6.37;;;1.90;;
13425;SDS011;6785;57.918;12.530;2022-09-09T07:48:50;2.20;;;1.97;;
13425;SDS011;6785;57.918;12.530;2022-09-09T07:51:19;3.00;;;1.90;;
13425;SDS011;6785;57.918;12.530;2022-09-09T07:53:51;4.00;;;1.70;;
13425;SDS011;6785;57.918;12.530;2022-09-09T07:56:19;3.60;;;1.80;;
13425;SDS011;6785;57.918;12.530;2022-09-09T07:58:48;3.00;;;1.60;;
13425;SDS011;6785;57.918;12.530;2022-09-09T08:04:10;6.70;;;1.83;;
13425;SDS011;6785;57.918;12.530;2022-09-09T08:06:40;4.17;;;1.70;;
13425;SDS011;6785;57.918;12.530;2022-09-09T08:12:00;7.87;;;2.03;;
13425;SDS011;6785;57.918;12.530;2022-09-09T08:17:19;5.23;;;2.00;;
13425;SDS011;6785;57.918;12.530;2022-09-09T08:19:47;5.17;;;2.17;;
13425;SDS011;6785;57.918;12.530;2022-09-09T08:22:23;3.13;;;1.90;;
13425;SDS011;6785;57.918;12.530;2022-09-09T08:24:51;4.37;;;1.90;;
13425;SDS011;6785;57.918;12.530;2022-09-09T08:27:18;4.77;;;1.90;;
13425;SDS011;6785;57.918;12.530;2022-09-09T08:29:45;5.73;;;1.90;;
13425;SDS011;6785;57.918;12.530;2022-09-09T08:32:12;3.73;;;1.87;;
13425;SDS011;6785;57.918;12.530;2022-09-09T08:34:39;3.27;;;1.80;;
13425;SDS011;6785;57.918;12.530;2022-09-09T08:37:08;1.83;;;1.60;;
13425;SDS011;6785;57.918;12.530;2022-09-09T08:42:35;3.13;;;1.97;;
13425;SDS011;6785;57.918;12.530;2022-09-09T08:45:19;4.33;;;1.97;;
13425;SDS011;6785;57.918;12.530;2022-09-09T08:47:54;4.33;;;2.00;;
13425;SDS011;6785;57.918;12.530;2022-09-09T08:50:43;3.00;;;1.70;;
13425;SDS011;6785;57.918;12.530;2022-09-09T08:53:16;3.63;;;1.80;;
13425;SDS011;6785;57.918;12.530;2022-09-09T08:55:47;3.47;;;2.10;;
13425;SDS011;6785;57.918;12.530;2022-09-09T08:58:16;2.63;;;1.63;;
13425;SDS011;6785;57.918;12.530;2022-09-09T09:00:52;2.77;;;1.70;;
13425;SDS011;6785;57.918;12.530;2022-09-09T09:03:30;4.07;;;2.20;;
13425;SDS011;6785;57.918;12.530;2022-09-09T09:06:04;3.30;;;2.10;;
13425;SDS011;6785;57.918;12.530;2022-09-09T09:08:41;2.67;;;2.03;;
13425;SDS011;6785;57.918;12.530;2022-09-09T09:14:15;3.57;;;1.80;;
13425;SDS011;6785;57.918;12.530;2022-09-09T09:16:48;3.50;;;1.90;;
13425;SDS011;6785;57.918;12.530;2022-09-09T09:19:19;5.43;;;2.20;;
13425;SDS011;6785;57.918;12.530;2022-09-09T09:21:49;2.17;;;1.97;;
13425;SDS011;6785;57.918;12.530;2022-09-09T09:27:28;6.23;;;2.20;;
13425;SDS011;6785;57.918;12.530;2022-09-09T09:29:59;2.70;;;1.87;;
13425;SDS011;6785;57.918;12.530;2022-09-09T09:32:28;2.63;;;1.80;;
13425;SDS011;6785;57.918;12.530;2022-09-09T09:34:59;5.03;;;1.80;;
13425;SDS011;6785;57.918;12.530;2022-09-09T09:40:50;6.03;;;1.80;;
13425;SDS011;6785;57.918;12.530;2022-09-09T09:43:26;6.13;;;2.10;;
13425;SDS011;6785;57.918;12.530;2022-09-09T09:45:54;5.77;;;2.13;;
13425;SDS011;6785;57.918;12.530;2022-09-09T09:48:23;4.43;;;2.20;;
13425;SDS011;6785;57.918;12.530;2022-09-09T09:50:51;4.30;;;2.07;;
13425;SDS011;6785;57.918;12.530;2022-09-09T09:53:23;3.57;;;2.07;;
13425;SDS011;6785;57.918;12.530;2022-09-09T09:55:56;4.30;;;1.80;;
13425;SDS011;6785;57.918;12.530;2022-09-09T09:58:27;5.63;;;2.27;;
13425;SDS011;6785;57.918;12.530;2022-09-09T10:00:58;4.90;;;2.10;;
13425;SDS011;6785;57.918;12.530;2022-09-09T10:03:26;6.77;;;2.20;;
13425;SDS011;6785;57.918;12.530;2022-09-09T10:09:17;2.03;;;1.73;;
13425;SDS011;6785;57.918;12.530;2022-09-09T10:11:50;3.13;;;2.17;;
13425;SDS011;6785;57.918;12.530;2022-09-09T10:14:24;3.03;;;2.13;;
13425;SDS011;6785;57.918;12.530;2022-09-09T10:17:05;2.77;;;2.00;;
13425;SDS011;6785;57.918;12.530;2022-09-09T10:19:45;5.20;;;2.20;;
13425;SDS011;6785;57.918;12.530;2022-09-09T10:22:25;2.70;;;2.07;;
13425;SDS011;6785;57.918;12.530;2022-09-09T10:28:03;3.53;;;2.10;;
13425;SDS011;6785;57.918;12.530;2022-09-09T10:30:54;3.63;;;2.13;;
13425;SDS011;6785;57.918;12.530;2022-09-09T10:36:38;7.10;;;2.13;;
13425;SDS011;6785;57.918;12.530;2022-09-09T10:39:13;3.37;;;1.90;;
13425;SDS011;6785;57.918;12.530;2022-09-09T10:41:58;4.10;;;1.77;;
13425;SDS011;6785;57.918;12.530;2022-09-09T10:44:34;4.03;;;2.00;;
13425;SDS011;6785;57.918;12.530;2022-09-09T10:47:19;5.33;;;2.27;;
13425;SDS011;6785;57.918;12.530;2022-09-09T10:50:11;2.73;;;2.10;;
13425;SDS011;6785;57.918;12.530;2022-09-09T10:52:47;5.00;;;2.03;;
13425;SDS011;6785;57.918;12.530;2022-09-09T10:55:24;3.93;;;2.10;;
13425;SDS011;6785;57.918;12.530;2022-09-09T10:57:54;2.67;;;2.20;;
13425;SDS011;6785;57.918;12.530;2022-09-09T11:00:24;3.47;;;1.90;;
13425;SDS011;6785;57.918;12.530;2022-09-09T11:02:55;3.43;;;2.13;;
13425;SDS011;6785;57.918;12.530;2022-09-09T11:05:24;4.33;;;2.40;;
13425;SDS011;6785;57.918;12.530;2022-09-09T11:07:58;5.27;;;2.30;;
13425;SDS011;6785;57.918;12.530;2022-09-09T11:10:30;2.63;;;2.10;;
13425;SDS011;6785;57.918;12.530;2022-09-09T11:13:18;4.57;;;1.97;;
13425;SDS011;6785;57.918;12.530;2022-09-09T11:15:52;3.03;;;2.00;;
13425;SDS011;6785;57.918;12.530;2022-09-09T11:18:27;6.70;;;2.20;;
13425;SDS011;6785;57.918;12.530;2022-09-09T11:20:56;3.23;;;2.10;;
13425;SDS011;6785;57.918;12.530;2022-09-09T11:23:27;3.20;;;2.33;;
13425;SDS011;6785;57.918;12.530;2022-09-09T11:26:00;7.37;;;2.40;;
13425;SDS011;6785;57.918;12.530;2022-09-09T11:28:35;3.13;;;2.20;;
13425;SDS011;6785;57.918;12.530;2022-09-09T11:31:17;4.77;;;2.27;;
13425;SDS011;6785;57.918;12.530;2022-09-09T11:34:06;3.87;;;2.07;;
13425;SDS011;6785;57.918;12.530;2022-09-09T11:37:02;6.07;;;2.47;;
13425;SDS011;6785;57.918;12.530;2022-09-09T11:42:45;3.70;;;2.40;;
13425;SDS011;6785;57.918;12.530;2022-09-09T11:45:21;4.93;;;2.43;;
13425;SDS011;6785;57.918;12.530;2022-09-09T11:50:58;4.40;;;2.13;;
13425;SDS011;6785;57.918;12.530;2022-09-09T11:53:34;4.87;;;2.50;;
13425;SDS011;6785;57.918;12.530;2022-09-09T11:56:22;6.07;;;2.27;;
13425;SDS011;6785;57.918;12.530;2022-09-09T11:58:56;4.27;;;2.37;;
13425;SDS011;6785;57.918;12.530;2022-09-09T12:01:29;3.83;;;2.03;;
13425;SDS011;6785;57.918;12.530;2022-09-09T12:09:56;5.67;;;2.03;;
13425;SDS011;6785;57.918;12.530;2022-09-09T12:12:29;4.73;;;2.20;;
13425;SDS011;6785;57.918;12.530;2022-09-09T12:14:59;8.63;;;2.53;;
13425;SDS011;6785;57.918;12.530;2022-09-09T12:20:34;3.60;;;2.40;;
13425;SDS011;6785;57.918;12.530;2022-09-09T12:23:15;4.27;;;2.70;;
13425;SDS011;6785;57.918;12.530;2022-09-09T12:25:59;3.53;;;2.40;;
13425;SDS011;6785;57.918;12.530;2022-09-09T12:28:39;5.33;;;2.13;;
13425;SDS011;6785;57.918;12.530;2022-09-09T12:34:25;6.00;;;2.40;;
13425;SDS011;6785;57.918;12.530;2022-09-09T12:37:15;4.17;;;2.50;;
13425;SDS011;6785;57.918;12.530;2022-09-09T12:39:47;6.33;;;2.47;;
13425;SDS011;6785;57.918;12.530;2022-09-09T12:42:18;3.77;;;2.30;;
13425;SDS011;6785;57.918;12.530;2022-09-09T12:44:50;4.17;;;2.70;;
13425;SDS011;6785;57.918;12.530;2022-09-09T12:47:18;7.13;;;2.67;;
13425;SDS011;6785;57.918;12.530;2022-09-09T12:49:48;3.73;;;2.50;;
13425;SDS011;6785;57.918;12.530;2022-09-09T12:52:18;4.67;;;2.60;;
13425;SDS011;6785;57.918;12.530;2022-09-09T12:54:57;3.13;;;2.30;;
13425;SDS011;6785;57.918;12.530;2022-09-09T12:57:31;3.60;;;2.20;;
13425;SDS011;6785;57.918;12.530;2022-09-09T13:00:07;3.53;;;2.10;;
13425;SDS011;6785;57.918;12.530;2022-09-09T13:02:50;6.60;;;2.40;;
13425;SDS011;6785;57.918;12.530;2022-09-09T13:05:20;5.00;;;2.73;;
13425;SDS011;6785;57.918;12.530;2022-09-09T13:08:04;4.93;;;2.40;;
13425;SDS011;6785;57.918;12.530;2022-09-09T13:10:35;4.67;;;2.23;;
13425;SDS011;6785;57.918;12.530;2022-09-09T13:15:49;3.20;;;2.40;;
13425;SDS011;6785;57.918;12.530;2022-09-09T13:18:21;3.07;;;2.43;;
13425;SDS011;6785;57.918;12.530;2022-09-09T13:20:53;6.10;;;2.50;;
13425;SDS011;6785;57.918;12.530;2022-09-09T13:23:22;5.93;;;2.57;;
13425;SDS011;6785;57.918;12.530;2022-09-09T13:25:56;3.67;;;2.43;;
13425;SDS011;6785;57.918;12.530;2022-09-09T13:28:29;4.60;;;2.73;;
13425;SDS011;6785;57.918;12.530;2022-09-09T13:30:58;3.67;;;2.70;;
13425;SDS011;6785;57.918;12.530;2022-09-09T13:36:48;6.10;;;2.60;;
13425;SDS011;6785;57.918;12.530;2022-09-09T13:39:15;3.37;;;2.50;;
13425;SDS011;6785;57.918;12.530;2022-09-09T13:41:53;4.60;;;2.43;;
13425;SDS011;6785;57.918;12.530;2022-09-09T13:44:25;7.03;;;3.17;;
13425;SDS011;6785;57.918;12.530;2022-09-09T13:47:01;9.10;;;3.00;;
13425;SDS011;6785;57.918;12.530;2022-09-09T13:49:32;4.70;;;3.27;;
13425;SDS011;6785;57.918;12.530;2022-09-09T13:52:03;7.83;;;3.27;;
13425;SDS011;6785;57.918;12.530;2022-09-09T13:54:46;8.70;;;3.07;;
13425;SDS011;6785;57.918;12.530;2022-09-09T13:57:17;5.67;;;3.10;;
13425;SDS011;6785;57.918;12.530;2022-09-09T13:59:45;4.37;;;2.70;;
13425;SDS011;6785;57.918;12.530;2022-09-09T14:02:13;7.03;;;3.43;;
13425;SDS011;6785;57.918;12.530;2022-09-09T14:04:41;3.40;;;2.83;;
13425;SDS011;6785;57.918;12.530;2022-09-09T14:07:09;3.43;;;2.40;;
13425;SDS011;6785;57.918;12.530;2022-09-09T14:09:38;7.80;;;3.23;;
13425;SDS011;6785;57.918;12.530;2022-09-09T14:12:05;7.73;;;2.97;;
13425;SDS011;6785;57.918;12.530;2022-09-09T14:14:36;4.73;;;3.20;;
13425;SDS011;6785;57.918;12.530;2022-09-09T14:17:03;4.43;;;2.80;;
13425;SDS011;6785;57.918;12.530;2022-09-09T14:19:30;3.97;;;2.70;;
13425;SDS011;6785;57.918;12.530;2022-09-09T14:22:09;4.27;;;2.90;;
13425;SDS011;6785;57.918;12.530;2022-09-09T14:24:37;5.27;;;3.27;;
13425;SDS011;6785;57.918;12.530;2022-09-09T14:27:04;3.73;;;3.30;;
13425;SDS011;6785;57.918;12.530;2022-09-09T14:29:31;4.60;;;3.40;;
13425;SDS011;6785;57.918;12.530;2022-09-09T14:31:59;7.10;;;3.67;;
13425;SDS011;6785;57.918;12.530;2022-09-09T14:34:26;6.37;;;3.57;;
13425;SDS011;6785;57.918;12.530;2022-09-09T14:36:53;8.13;;;3.17;;
13425;SDS011;6785;57.918;12.530;2022-09-09T14:39:20;5.10;;;3.27;;
13425;SDS011;6785;57.918;12.530;2022-09-09T14:41:47;6.53;;;3.87;;
13425;SDS011;6785;57.918;12.530;2022-09-09T14:44:14;6.03;;;3.57;;
13425;SDS011;6785;57.918;12.530;2022-09-09T14:46:41;6.50;;;3.60;;
13425;SDS011;6785;57.918;12.530;2022-09-09T14:49:09;4.83;;;3.60;;
13425;SDS011;6785;57.918;12.530;2022-09-09T14:51:55;6.97;;;3.47;;
13425;SDS011;6785;57.918;12.530;2022-09-09T14:54:22;5.50;;;3.30;;
13425;SDS011;6785;57.918;12.530;2022-09-09T14:56:49;8.93;;;4.07;;
13425;SDS011;6785;57.918;12.530;2022-09-09T14:59:15;3.93;;;3.20;;
13425;SDS011;6785;57.918;12.530;2022-09-09T15:01:42;4.67;;;3.47;;
13425;SDS011;6785;57.918;12.530;2022-09-09T15:04:11;6.20;;;3.83;;
13425;SDS011;6785;57.918;12.530;2022-09-09T15:06:40;7.23;;;3.53;;
13425;SDS011;6785;57.918;12.530;2022-09-09T15:09:08;5.80;;;3.70;;
13425;SDS011;6785;57.918;12.530;2022-09-09T15:11:35;4.90;;;3.50;;
13425;SDS011;6785;57.918;12.530;2022-09-09T15:14:03;5.07;;;3.50;;
13425;SDS011;6785;57.918;12.530;2022-09-09T15:16:31;6.77;;;4.07;;
13425;SDS011;6785;57.918;12.530;2022-09-09T15:18:59;6.90;;;4.10;;
13425;SDS011;6785;57.918;12.530;2022-09-09T15:21:28;6.63;;;3.77;;
13425;SDS011;6785;57.918;12.530;2022-09-09T15:23:56;6.40;;;3.80;;
13425;SDS011;6785;57.918;12.530;2022-09-09T15:26:24;5.07;;;3.23;;
13425;SDS011;6785;57.918;12.530;2022-09-09T15:28:51;6.60;;;3.90;;
13425;SDS011;6785;57.918;12.530;2022-09-09T15:31:20;4.07;;;3.67;;
13425;SDS011;6785;57.918;12.530;2022-09-09T15:33:48;5.43;;;3.70;;
13425;SDS011;6785;57.918;12.530;2022-09-09T15:36:16;5.63;;;4.07;;
13425;SDS011;6785;57.918;12.530;2022-09-09T15:38:45;7.20;;;3.80;;
13425;SDS011;6785;57.918;12.530;2022-09-09T15:41:13;5.77;;;3.90;;
13425;SDS011;6785;57.918;12.530;2022-09-09T15:43:42;6.23;;;4.33;;
13425;SDS011;6785;57.918;12.530;2022-09-09T15:46:24;6.53;;;4.00;;
13425;SDS011;6785;57.918;12.530;2022-09-09T15:48:53;4.90;;;3.50;;
13425;SDS011;6785;57.918;12.530;2022-09-09T15:51:21;7.80;;;3.63;;
13425;SDS011;6785;57.918;12.530;2022-09-09T15:53:54;4.97;;;3.67;;
13425;SDS011;6785;57.918;12.530;2022-09-09T15:56:22;7.27;;;4.10;;
13425;SDS011;6785;57.918;12.530;2022-09-09T15:58:49;9.17;;;4.53;;
13425;SDS011;6785;57.918;12.530;2022-09-09T16:01:17;6.17;;;4.30;;
13425;SDS011;6785;57.918;12.530;2022-09-09T16:03:50;9.10;;;4.30;;
13425;SDS011;6785;57.918;12.530;2022-09-09T16:06:26;4.30;;;3.67;;
13425;SDS011;6785;57.918;12.530;2022-09-09T16:08:58;7.30;;;4.03;;
13425;SDS011;6785;57.918;12.530;2022-09-09T16:11:26;6.17;;;4.10;;
13425;SDS011;6785;57.918;12.530;2022-09-09T16:13:54;4.47;;;3.37;;
13425;SDS011;6785;57.918;12.530;2022-09-09T16:16:22;5.57;;;3.83;;
13425;SDS011;6785;57.918;12.530;2022-09-09T16:18:51;7.17;;;4.07;;
13425;SDS011;6785;57.918;12.530;2022-09-09T16:21:20;7.73;;;4.23;;
13425;SDS011;6785;57.918;12.530;2022-09-09T16:26:43;5.93;;;4.27;;
13425;SDS011;6785;57.918;12.530;2022-09-09T16:29:11;7.97;;;4.03;;
13425;SDS011;6785;57.918;12.530;2022-09-09T16:31:39;4.93;;;3.73;;
13425;SDS011;6785;57.918;12.530;2022-09-09T16:34:12;4.00;;;3.63;;